Terminal Aerodrome Forecast
Issued by NWS Blacksburg, VA

Home | Current Version | Previous Version | Text Only | Print | Product List | Glossary On
Versions: 1 2 3 4 5 6 7 8 9 10 11 12 13
000
FTUS41 KRNK 271429 AAA
TAFBLF
TAF AMD
KBLF 271429Z 2714/2812 23005KT P6SM BKN050
     FM271600 24008KT P6SM VCSH BKN060
     FM280000 21004KT P6SM OVC060
     FM281100 20004KT 6SM -SHRA OVC025
      AMD NOT SKED=

USA.gov is the U.S. government's official web portal to all federal, state and local government web resources and services.